sensor_id;sensor_type;location;lat;lon;timestamp;temperature;humidity
6018;DHT22;3037;51.068;13.780;2024-02-26T00:00:38;3.40;99.90
6018;DHT22;3037;51.068;13.780;2024-02-26T00:03:04;3.30;99.90
6018;DHT22;3037;51.068;13.780;2024-02-26T00:05:29;3.30;99.90
6018;DHT22;3037;51.068;13.780;2024-02-26T00:07:56;3.20;99.90
6018;DHT22;3037;51.068;13.780;2024-02-26T00:10:22;3.20;99.90
6018;DHT22;3037;51.068;13.780;2024-02-26T00:12:47;3.10;99.90
6018;DHT22;3037;51.068;13.780;2024-02-26T00:15:13;3.10;99.90
6018;DHT22;3037;51.068;13.780;2024-02-26T00:17:39;3.20;99.90
6018;DHT22;3037;51.068;13.780;2024-02-26T00:20:06;3.00;99.90
6018;DHT22;3037;51.068;13.780;2024-02-26T00:22:34;3.00;99.90
6018;DHT22;3037;51.068;13.780;2024-02-26T00:25:00;3.00;64.80
6018;DHT22;3037;51.068;13.780;2024-02-26T00:27:25;2.90;1.00
6018;DHT22;3037;51.068;13.780;2024-02-26T00:29:51;2.80;1.00
6018;DHT22;3037;51.068;13.780;2024-02-26T00:32:16;2.70;99.90
6018;DHT22;3037;51.068;13.780;2024-02-26T00:34:42;2.60;99.90
6018;DHT22;3037;51.068;13.780;2024-02-26T00:37:07;2.60;99.90
6018;DHT22;3037;51.068;13.780;2024-02-26T00:39:33;2.60;99.90
6018;DHT22;3037;51.068;13.780;2024-02-26T00:41:58;2.60;99.90
6018;DHT22;3037;51.068;13.780;2024-02-26T00:44:24;2.60;1.00
6018;DHT22;3037;51.068;13.780;2024-02-26T00:46:49;2.60;1.00
6018;DHT22;3037;51.068;13.780;2024-02-26T00:49:15;2.60;99.90
6018;DHT22;3037;51.068;13.780;2024-02-26T00:51:40;2.70;99.90
6018;DHT22;3037;51.068;13.780;2024-02-26T00:54:06;2.60;99.90
6018;DHT22;3037;51.068;13.780;2024-02-26T00:56:31;2.60;99.90
6018;DHT22;3037;51.068;13.780;2024-02-26T00:58:56;2.70;99.90
6018;DHT22;3037;51.068;13.780;2024-02-26T01:01:22;2.80;99.90
6018;DHT22;3037;51.068;13.780;2024-02-26T01:03:47;2.80;99.90
6018;DHT22;3037;51.068;13.780;2024-02-26T01:06:13;2.80;99.90
6018;DHT22;3037;51.068;13.780;2024-02-26T01:08:38;2.90;99.90
6018;DHT22;3037;51.068;13.780;2024-02-26T01:11:04;2.80;99.90
6018;DHT22;3037;51.068;13.780;2024-02-26T01:13:30;2.70;99.90
6018;DHT22;3037;51.068;13.780;2024-02-26T01:15:55;2.70;99.90
6018;DHT22;3037;51.068;13.780;2024-02-26T01:18:21;2.80;99.90
6018;DHT22;3037;51.068;13.780;2024-02-26T01:20:46;2.70;99.90
6018;DHT22;3037;51.068;13.780;2024-02-26T01:23:12;2.60;99.90
6018;DHT22;3037;51.068;13.780;2024-02-26T01:25:38;2.60;99.90
6018;DHT22;3037;51.068;13.780;2024-02-26T01:28:04;2.60;99.90
6018;DHT22;3037;51.068;13.780;2024-02-26T01:30:30;2.60;99.90
6018;DHT22;3037;51.068;13.780;2024-02-26T01:32:56;2.60;99.90
6018;DHT22;3037;51.068;13.780;2024-02-26T01:35:21;2.70;99.90
6018;DHT22;3037;51.068;13.780;2024-02-26T01:37:47;2.80;99.90
6018;DHT22;3037;51.068;13.780;2024-02-26T01:40:12;2.70;99.90
6018;DHT22;3037;51.068;13.780;2024-02-26T01:42:43;2.60;99.90
6018;DHT22;3037;51.068;13.780;2024-02-26T01:45:14;2.50;99.90
6018;DHT22;3037;51.068;13.780;2024-02-26T01:47:41;2.60;99.90
6018;DHT22;3037;51.068;13.780;2024-02-26T01:50:07;2.60;99.90
6018;DHT22;3037;51.068;13.780;2024-02-26T01:52:34;2.50;99.90
6018;DHT22;3037;51.068;13.780;2024-02-26T01:54:59;2.40;99.90
6018;DHT22;3037;51.068;13.780;2024-02-26T01:57:27;2.40;99.90
6018;DHT22;3037;51.068;13.780;2024-02-26T01:59:53;2.50;99.90
6018;DHT22;3037;51.068;13.780;2024-02-26T02:02:19;2.50;99.90
6018;DHT22;3037;51.068;13.780;2024-02-26T02:04:44;2.40;99.90
6018;DHT22;3037;51.068;13.780;2024-02-26T02:07:10;2.40;99.90
6018;DHT22;3037;51.068;13.780;2024-02-26T02:09:36;2.40;99.90
6018;DHT22;3037;51.068;13.780;2024-02-26T02:12:01;2.50;99.90
6018;DHT22;3037;51.068;13.780;2024-02-26T02:14:27;2.50;99.90
6018;DHT22;3037;51.068;13.780;2024-02-26T02:16:53;2.50;99.90
6018;DHT22;3037;51.068;13.780;2024-02-26T02:19:18;2.50;99.90
6018;DHT22;3037;51.068;13.780;2024-02-26T02:21:44;2.40;99.90
6018;DHT22;3037;51.068;13.780;2024-02-26T02:24:09;2.40;99.90
6018;DHT22;3037;51.068;13.780;2024-02-26T02:26:35;2.40;99.90
6018;DHT22;3037;51.068;13.780;2024-02-26T02:29:01;2.40;99.90
6018;DHT22;3037;51.068;13.780;2024-02-26T02:31:27;2.40;99.90
6018;DHT22;3037;51.068;13.780;2024-02-26T02:33:53;2.30;99.90
6018;DHT22;3037;51.068;13.780;2024-02-26T02:36:18;2.30;99.90
6018;DHT22;3037;51.068;13.780;2024-02-26T02:38:51;2.30;99.90
6018;DHT22;3037;51.068;13.780;2024-02-26T02:41:17;2.30;99.90
6018;DHT22;3037;51.068;13.780;2024-02-26T02:43:43;2.40;99.90
6018;DHT22;3037;51.068;13.780;2024-02-26T02:46:08;2.40;99.90
6018;DHT22;3037;51.068;13.780;2024-02-26T02:48:34;2.30;99.90
6018;DHT22;3037;51.068;13.780;2024-02-26T02:50:59;2.30;99.90
6018;DHT22;3037;51.068;13.780;2024-02-26T02:53:25;2.20;99.90
6018;DHT22;3037;51.068;13.780;2024-02-26T02:55:50;2.10;99.90
6018;DHT22;3037;51.068;13.780;2024-02-26T02:58:15;2.10;99.90
6018;DHT22;3037;51.068;13.780;2024-02-26T03:00:41;2.20;99.90
6018;DHT22;3037;51.068;13.780;2024-02-26T03:03:06;2.20;99.90
6018;DHT22;3037;51.068;13.780;2024-02-26T03:05:32;2.30;99.90
6018;DHT22;3037;51.068;13.780;2024-02-26T03:07:58;2.30;99.90
6018;DHT22;3037;51.068;13.780;2024-02-26T03:10:23;2.30;99.90
6018;DHT22;3037;51.068;13.780;2024-02-26T03:12:49;2.30;99.90
6018;DHT22;3037;51.068;13.780;2024-02-26T03:15:15;2.30;99.90
6018;DHT22;3037;51.068;13.780;2024-02-26T03:17:41;2.20;99.90
6018;DHT22;3037;51.068;13.780;2024-02-26T03:20:07;2.10;99.90
6018;DHT22;3037;51.068;13.780;2024-02-26T03:22:33;2.10;99.90
6018;DHT22;3037;51.068;13.780;2024-02-26T03:24:59;2.10;99.90
6018;DHT22;3037;51.068;13.780;2024-02-26T03:27:24;2.20;99.90
6018;DHT22;3037;51.068;13.780;2024-02-26T03:29:50;2.10;99.90
6018;DHT22;3037;51.068;13.780;2024-02-26T03:32:16;2.20;99.90
6018;DHT22;3037;51.068;13.780;2024-02-26T03:34:41;2.10;99.90
6018;DHT22;3037;51.068;13.780;2024-02-26T03:37:07;2.10;99.90
6018;DHT22;3037;51.068;13.780;2024-02-26T03:39:35;2.10;99.90
6018;DHT22;3037;51.068;13.780;2024-02-26T03:42:01;2.00;99.90
6018;DHT22;3037;51.068;13.780;2024-02-26T03:44:26;2.10;99.90
6018;DHT22;3037;51.068;13.780;2024-02-26T03:46:52;2.00;99.90
6018;DHT22;3037;51.068;13.780;2024-02-26T03:49:17;2.10;99.90
6018;DHT22;3037;51.068;13.780;2024-02-26T03:51:43;2.10;99.90
6018;DHT22;3037;51.068;13.780;2024-02-26T03:54:08;2.00;99.90
6018;DHT22;3037;51.068;13.780;2024-02-26T03:56:34;2.00;99.90
6018;DHT22;3037;51.068;13.780;2024-02-26T03:58:59;2.10;99.90
6018;DHT22;3037;51.068;13.780;2024-02-26T04:01:27;2.00;99.90
6018;DHT22;3037;51.068;13.780;2024-02-26T04:03:52;1.90;99.90
6018;DHT22;3037;51.068;13.780;2024-02-26T04:06:18;1.80;99.90
6018;DHT22;3037;51.068;13.780;2024-02-26T04:08:49;1.80;99.90
6018;DHT22;3037;51.068;13.780;2024-02-26T04:11:14;1.90;99.90
6018;DHT22;3037;51.068;13.780;2024-02-26T04:13:43;1.90;99.90
6018;DHT22;3037;51.068;13.780;2024-02-26T04:16:11;1.90;99.90
6018;DHT22;3037;51.068;13.780;2024-02-26T04:18:37;2.00;99.90
6018;DHT22;3037;51.068;13.780;2024-02-26T04:21:03;2.00;99.90
6018;DHT22;3037;51.068;13.780;2024-02-26T04:23:30;1.90;99.90
6018;DHT22;3037;51.068;13.780;2024-02-26T04:25:56;1.90;99.90
6018;DHT22;3037;51.068;13.780;2024-02-26T04:28:21;1.90;99.90
6018;DHT22;3037;51.068;13.780;2024-02-26T04:30:47;1.80;99.90
6018;DHT22;3037;51.068;13.780;2024-02-26T04:33:13;1.80;99.90
6018;DHT22;3037;51.068;13.780;2024-02-26T04:35:39;1.70;99.90
6018;DHT22;3037;51.068;13.780;2024-02-26T04:38:04;1.70;99.90
6018;DHT22;3037;51.068;13.780;2024-02-26T04:40:30;1.80;99.90
6018;DHT22;3037;51.068;13.780;2024-02-26T04:42:55;1.80;99.90
6018;DHT22;3037;51.068;13.780;2024-02-26T04:45:21;1.80;99.90
6018;DHT22;3037;51.068;13.780;2024-02-26T04:47:46;1.80;99.90
6018;DHT22;3037;51.068;13.780;2024-02-26T04:50:12;1.80;99.90
6018;DHT22;3037;51.068;13.780;2024-02-26T04:52:37;1.90;99.90
6018;DHT22;3037;51.068;13.780;2024-02-26T04:55:03;1.90;99.90
6018;DHT22;3037;51.068;13.780;2024-02-26T04:57:29;1.80;99.90
6018;DHT22;3037;51.068;13.780;2024-02-26T04:59:54;1.80;99.90
6018;DHT22;3037;51.068;13.780;2024-02-26T05:02:20;1.80;99.90
6018;DHT22;3037;51.068;13.780;2024-02-26T05:04:45;1.70;99.90
6018;DHT22;3037;51.068;13.780;2024-02-26T05:07:11;1.80;99.90
6018;DHT22;3037;51.068;13.780;2024-02-26T05:09:37;1.80;99.90
6018;DHT22;3037;51.068;13.780;2024-02-26T05:12:03;1.80;99.90
6018;DHT22;3037;51.068;13.780;2024-02-26T05:14:29;1.80;99.90
6018;DHT22;3037;51.068;13.780;2024-02-26T05:16:54;1.80;99.90
6018;DHT22;3037;51.068;13.780;2024-02-26T05:19:20;1.70;99.90
6018;DHT22;3037;51.068;13.780;2024-02-26T05:21:45;1.70;99.90
6018;DHT22;3037;51.068;13.780;2024-02-26T05:24:12;1.70;99.90
6018;DHT22;3037;51.068;13.780;2024-02-26T05:26:38;1.70;99.90
6018;DHT22;3037;51.068;13.780;2024-02-26T05:29:03;1.70;99.90
6018;DHT22;3037;51.068;13.780;2024-02-26T05:31:29;1.70;99.90
6018;DHT22;3037;51.068;13.780;2024-02-26T05:33:54;1.70;99.90
6018;DHT22;3037;51.068;13.780;2024-02-26T05:36:23;1.70;99.90
6018;DHT22;3037;51.068;13.780;2024-02-26T05:38:49;1.80;99.90
6018;DHT22;3037;51.068;13.780;2024-02-26T05:41:16;1.80;99.90
6018;DHT22;3037;51.068;13.780;2024-02-26T05:43:42;1.90;99.90
6018;DHT22;3037;51.068;13.780;2024-02-26T05:46:07;2.00;99.90
6018;DHT22;3037;51.068;13.780;2024-02-26T05:48:33;1.90;99.90
6018;DHT22;3037;51.068;13.780;2024-02-26T05:50:58;2.00;99.90
6018;DHT22;3037;51.068;13.780;2024-02-26T05:53:24;2.10;99.90
6018;DHT22;3037;51.068;13.780;2024-02-26T05:55:49;2.20;99.90
6018;DHT22;3037;51.068;13.780;2024-02-26T05:58:14;2.20;99.90
6018;DHT22;3037;51.068;13.780;2024-02-26T06:00:40;3.60;99.90
6018;DHT22;3037;51.068;13.780;2024-02-26T06:03:06;3.10;99.90
6018;DHT22;3037;51.068;13.780;2024-02-26T06:05:31;3.10;99.90
6018;DHT22;3037;51.068;13.780;2024-02-26T06:07:57;3.10;99.90
6018;DHT22;3037;51.068;13.780;2024-02-26T06:10:22;2.50;99.90
6018;DHT22;3037;51.068;13.780;2024-02-26T06:12:48;2.40;99.90
6018;DHT22;3037;51.068;13.780;2024-02-26T06:15:13;2.40;99.90
6018;DHT22;3037;51.068;13.780;2024-02-26T06:17:39;2.30;99.90
6018;DHT22;3037;51.068;13.780;2024-02-26T06:20:05;2.30;99.90
6018;DHT22;3037;51.068;13.780;2024-02-26T06:22:31;3.00;99.90
6018;DHT22;3037;51.068;13.780;2024-02-26T06:24:57;4.70;99.90
6018;DHT22;3037;51.068;13.780;2024-02-26T06:27:23;4.80;99.90
6018;DHT22;3037;51.068;13.780;2024-02-26T06:29:49;5.40;99.90
6018;DHT22;3037;51.068;13.780;2024-02-26T06:32:14;5.90;99.90
6018;DHT22;3037;51.068;13.780;2024-02-26T06:34:40;4.70;99.90
6018;DHT22;3037;51.068;13.780;2024-02-26T06:37:07;3.60;99.90
6018;DHT22;3037;51.068;13.780;2024-02-26T06:39:33;3.40;99.90
6018;DHT22;3037;51.068;13.780;2024-02-26T06:41:58;3.20;99.90
6018;DHT22;3037;51.068;13.780;2024-02-26T06:44:27;3.20;99.90
6018;DHT22;3037;51.068;13.780;2024-02-26T06:47:00;3.40;99.90
6018;DHT22;3037;51.068;13.780;2024-02-26T06:49:26;3.50;99.90
6018;DHT22;3037;51.068;13.780;2024-02-26T06:51:52;3.60;99.90
6018;DHT22;3037;51.068;13.780;2024-02-26T06:54:18;3.60;99.90
6018;DHT22;3037;51.068;13.780;2024-02-26T06:56:43;3.80;99.90
6018;DHT22;3037;51.068;13.780;2024-02-26T06:59:09;3.90;99.90
6018;DHT22;3037;51.068;13.780;2024-02-26T07:01:34;4.00;99.90
6018;DHT22;3037;51.068;13.780;2024-02-26T07:04:00;4.20;99.90
6018;DHT22;3037;51.068;13.780;2024-02-26T07:06:28;4.30;99.90
6018;DHT22;3037;51.068;13.780;2024-02-26T07:08:54;4.50;99.90
6018;DHT22;3037;51.068;13.780;2024-02-26T07:11:20;4.50;99.90
6018;DHT22;3037;51.068;13.780;2024-02-26T07:13:46;4.80;99.90
6018;DHT22;3037;51.068;13.780;2024-02-26T07:16:12;5.10;99.90
6018;DHT22;3037;51.068;13.780;2024-02-26T07:18:41;6.10;99.90
6018;DHT22;3037;51.068;13.780;2024-02-26T07:21:06;8.20;60.10
6018;DHT22;3037;51.068;13.780;2024-02-26T07:23:32;9.90;23.00
6018;DHT22;3037;51.068;13.780;2024-02-26T07:25:57;11.60;1.00
6018;DHT22;3037;51.068;13.780;2024-02-26T07:28:24;10.00;1.00
6018;DHT22;3037;51.068;13.780;2024-02-26T07:30:49;9.50;26.50
6018;DHT22;3037;51.068;13.780;2024-02-26T07:33:15;10.50;3.70
6018;DHT22;3037;51.068;13.780;2024-02-26T07:35:40;11.10;1.00
6018;DHT22;3037;51.068;13.780;2024-02-26T07:38:06;10.60;1.00
6018;DHT22;3037;51.068;13.780;2024-02-26T07:40:31;10.30;1.00
6018;DHT22;3037;51.068;13.780;2024-02-26T07:42:57;11.40;1.00
6018;DHT22;3037;51.068;13.780;2024-02-26T07:45:22;11.00;1.00
6018;DHT22;3037;51.068;13.780;2024-02-26T07:47:48;10.90;1.00
6018;DHT22;3037;51.068;13.780;2024-02-26T07:50:16;12.70;1.00
6018;DHT22;3037;51.068;13.780;2024-02-26T07:52:42;14.20;1.00
6018;DHT22;3037;51.068;13.780;2024-02-26T07:55:07;15.30;1.00
6018;DHT22;3037;51.068;13.780;2024-02-26T07:57:33;16.50;1.00
6018;DHT22;3037;51.068;13.780;2024-02-26T07:59:59;16.00;1.00
6018;DHT22;3037;51.068;13.780;2024-02-26T08:02:25;16.10;1.00
6018;DHT22;3037;51.068;13.780;2024-02-26T08:04:50;16.50;1.00
6018;DHT22;3037;51.068;13.780;2024-02-26T08:07:16;17.10;1.00
6018;DHT22;3037;51.068;13.780;2024-02-26T08:09:42;18.30;1.00
6018;DHT22;3037;51.068;13.780;2024-02-26T08:12:10;19.00;1.00
6018;DHT22;3037;51.068;13.780;2024-02-26T08:14:36;19.20;1.00
6018;DHT22;3037;51.068;13.780;2024-02-26T08:17:01;19.70;1.00
6018;DHT22;3037;51.068;13.780;2024-02-26T08:19:27;19.60;1.00
6018;DHT22;3037;51.068;13.780;2024-02-26T08:21:52;19.60;1.00
6018;DHT22;3037;51.068;13.780;2024-02-26T08:24:18;18.30;1.00
6018;DHT22;3037;51.068;13.780;2024-02-26T08:26:43;18.10;1.00
6018;DHT22;3037;51.068;13.780;2024-02-26T08:29:09;17.50;1.00
6018;DHT22;3037;51.068;13.780;2024-02-26T08:31:35;19.10;1.00
6018;DHT22;3037;51.068;13.780;2024-02-26T08:34:05;17.70;1.00
6018;DHT22;3037;51.068;13.780;2024-02-26T08:36:33;18.30;1.00
6018;DHT22;3037;51.068;13.780;2024-02-26T08:38:59;17.60;1.00
6018;DHT22;3037;51.068;13.780;2024-02-26T08:41:25;17.00;1.00
6018;DHT22;3037;51.068;13.780;2024-02-26T08:43:50;18.90;1.00
6018;DHT22;3037;51.068;13.780;2024-02-26T08:46:16;18.10;1.00
6018;DHT22;3037;51.068;13.780;2024-02-26T08:48:42;19.10;1.00
6018;DHT22;3037;51.068;13.780;2024-02-26T08:51:08;17.80;1.00
6018;DHT22;3037;51.068;13.780;2024-02-26T08:53:37;17.80;1.00
6018;DHT22;3037;51.068;13.780;2024-02-26T08:56:03;18.50;1.00
6018;DHT22;3037;51.068;13.780;2024-02-26T08:58:29;16.60;1.00
6018;DHT22;3037;51.068;13.780;2024-02-26T09:00:55;17.90;1.00
6018;DHT22;3037;51.068;13.780;2024-02-26T09:03:21;17.40;1.00
6018;DHT22;3037;51.068;13.780;2024-02-26T09:05:46;18.10;1.00
6018;DHT22;3037;51.068;13.780;2024-02-26T09:08:12;17.50;1.00
6018;DHT22;3037;51.068;13.780;2024-02-26T09:10:38;16.00;1.00
6018;DHT22;3037;51.068;13.780;2024-02-26T09:13:04;17.60;1.00
6018;DHT22;3037;51.068;13.780;2024-02-26T09:15:29;18.30;1.00
6018;DHT22;3037;51.068;13.780;2024-02-26T09:17:55;18.70;1.00
6018;DHT22;3037;51.068;13.780;2024-02-26T09:20:21;17.80;1.00
6018;DHT22;3037;51.068;13.780;2024-02-26T09:22:47;17.50;1.00
6018;DHT22;3037;51.068;13.780;2024-02-26T09:25:13;17.80;1.00
6018;DHT22;3037;51.068;13.780;2024-02-26T09:27:41;17.60;1.00
6018;DHT22;3037;51.068;13.780;2024-02-26T09:30:07;18.50;1.00
6018;DHT22;3037;51.068;13.780;2024-02-26T09:32:33;18.50;1.00
6018;DHT22;3037;51.068;13.780;2024-02-26T09:34:58;18.80;1.00
6018;DHT22;3037;51.068;13.780;2024-02-26T09:37:23;18.20;1.00
6018;DHT22;3037;51.068;13.780;2024-02-26T09:39:49;16.70;1.00
6018;DHT22;3037;51.068;13.780;2024-02-26T09:42:19;17.80;1.00
6018;DHT22;3037;51.068;13.780;2024-02-26T09:44:45;18.20;1.00
6018;DHT22;3037;51.068;13.780;2024-02-26T09:47:12;19.00;1.00
6018;DHT22;3037;51.068;13.780;2024-02-26T09:49:42;18.80;1.00
6018;DHT22;3037;51.068;13.780;2024-02-26T09:52:08;21.10;1.00
6018;DHT22;3037;51.068;13.780;2024-02-26T09:54:35;19.80;1.00
6018;DHT22;3037;51.068;13.780;2024-02-26T09:57:02;20.10;1.00
6018;DHT22;3037;51.068;13.780;2024-02-26T09:59:29;20.90;1.00
6018;DHT22;3037;51.068;13.780;2024-02-26T10:02:01;20.80;1.00
6018;DHT22;3037;51.068;13.780;2024-02-26T10:04:28;21.30;1.00
6018;DHT22;3037;51.068;13.780;2024-02-26T10:06:54;19.10;1.00
6018;DHT22;3037;51.068;13.780;2024-02-26T10:09:20;20.40;1.00
6018;DHT22;3037;51.068;13.780;2024-02-26T10:11:47;20.70;1.00
6018;DHT22;3037;51.068;13.780;2024-02-26T10:14:14;20.10;1.00
6018;DHT22;3037;51.068;13.780;2024-02-26T10:16:41;22.40;1.00
6018;DHT22;3037;51.068;13.780;2024-02-26T10:19:07;20.80;1.00
6018;DHT22;3037;51.068;13.780;2024-02-26T10:21:33;20.10;1.00
6018;DHT22;3037;51.068;13.780;2024-02-26T10:23:58;20.10;1.00
6018;DHT22;3037;51.068;13.780;2024-02-26T10:26:24;21.40;1.00
6018;DHT22;3037;51.068;13.780;2024-02-26T10:28:49;20.20;1.00
6018;DHT22;3037;51.068;13.780;2024-02-26T10:31:15;20.10;1.00
6018;DHT22;3037;51.068;13.780;2024-02-26T10:33:42;19.70;1.00
6018;DHT22;3037;51.068;13.780;2024-02-26T10:36:08;20.40;1.00
6018;DHT22;3037;51.068;13.780;2024-02-26T10:38:35;18.90;1.00
6018;DHT22;3037;51.068;13.780;2024-02-26T10:41:13;19.60;1.00
6018;DHT22;3037;51.068;13.780;2024-02-26T10:43:39;18.40;1.00
6018;DHT22;3037;51.068;13.780;2024-02-26T10:46:05;16.60;1.00
6018;DHT22;3037;51.068;13.780;2024-02-26T10:48:31;18.30;1.00
6018;DHT22;3037;51.068;13.780;2024-02-26T10:50:57;18.90;1.00
6018;DHT22;3037;51.068;13.780;2024-02-26T10:53:23;19.80;1.00
6018;DHT22;3037;51.068;13.780;2024-02-26T10:55:57;18.10;1.00
6018;DHT22;3037;51.068;13.780;2024-02-26T10:58:23;18.70;1.00
6018;DHT22;3037;51.068;13.780;2024-02-26T11:00:51;18.70;1.00
6018;DHT22;3037;51.068;13.780;2024-02-26T11:03:18;18.50;1.00
6018;DHT22;3037;51.068;13.780;2024-02-26T11:05:47;19.20;1.00
6018;DHT22;3037;51.068;13.780;2024-02-26T11:08:13;19.60;1.00
6018;DHT22;3037;51.068;13.780;2024-02-26T11:10:40;18.40;1.00
6018;DHT22;3037;51.068;13.780;2024-02-26T11:13:06;18.50;1.00
6018;DHT22;3037;51.068;13.780;2024-02-26T11:15:35;17.90;1.00
6018;DHT22;3037;51.068;13.780;2024-02-26T11:18:01;19.00;1.00
6018;DHT22;3037;51.068;13.780;2024-02-26T11:20:28;16.80;1.00
6018;DHT22;3037;51.068;13.780;2024-02-26T11:22:55;17.40;1.00
6018;DHT22;3037;51.068;13.780;2024-02-26T11:25:20;16.80;1.00
6018;DHT22;3037;51.068;13.780;2024-02-26T11:27:50;17.00;1.00
6018;DHT22;3037;51.068;13.780;2024-02-26T11:30:17;16.20;1.00
6018;DHT22;3037;51.068;13.780;2024-02-26T11:32:45;15.60;1.00
6018;DHT22;3037;51.068;13.780;2024-02-26T11:35:11;14.70;1.00
6018;DHT22;3037;51.068;13.780;2024-02-26T11:37:40;14.90;1.00
6018;DHT22;3037;51.068;13.780;2024-02-26T11:40:11;14.60;1.00
6018;DHT22;3037;51.068;13.780;2024-02-26T11:42:43;15.70;1.00
6018;DHT22;3037;51.068;13.780;2024-02-26T11:48:03;14.40;1.00
6018;DHT22;3037;51.068;13.780;2024-02-26T11:50:35;14.30;1.00
6018;DHT22;3037;51.068;13.780;2024-02-26T11:58:44;13.70;1.00
6018;DHT22;3037;51.068;13.780;2024-02-26T12:01:41;13.80;1.00
6018;DHT22;3037;51.068;13.780;2024-02-26T12:04:14;13.50;1.00
6018;DHT22;3037;51.068;13.780;2024-02-26T12:06:47;14.00;1.00
6018;DHT22;3037;51.068;13.780;2024-02-26T12:09:13;14.40;1.00
6018;DHT22;3037;51.068;13.780;2024-02-26T12:11:40;13.70;1.00
6018;DHT22;3037;51.068;13.780;2024-02-26T12:14:07;13.00;1.00
6018;DHT22;3037;51.068;13.780;2024-02-26T12:16:40;13.40;1.00
6018;DHT22;3037;51.068;13.780;2024-02-26T12:19:09;13.70;1.00
6018;DHT22;3037;51.068;13.780;2024-02-26T12:21:36;13.30;1.00
6018;DHT22;3037;51.068;13.780;2024-02-26T12:24:14;13.20;1.00
6018;DHT22;3037;51.068;13.780;2024-02-26T12:26:41;13.10;1.00
6018;DHT22;3037;51.068;13.780;2024-02-26T12:29:08;13.10;1.00
6018;DHT22;3037;51.068;13.780;2024-02-26T12:31:33;12.70;1.00
6018;DHT22;3037;51.068;13.780;2024-02-26T12:34:00;12.90;1.00
6018;DHT22;3037;51.068;13.780;2024-02-26T12:36:26;12.70;1.00
6018;DHT22;3037;51.068;13.780;2024-02-26T12:38:52;12.80;1.00
6018;DHT22;3037;51.068;13.780;2024-02-26T12:41:17;13.00;1.00
6018;DHT22;3037;51.068;13.780;2024-02-26T12:43:43;13.10;1.00
6018;DHT22;3037;51.068;13.780;2024-02-26T12:46:08;12.50;1.00
6018;DHT22;3037;51.068;13.780;2024-02-26T12:48:35;12.70;1.00
6018;DHT22;3037;51.068;13.780;2024-02-26T12:51:00;12.50;1.00
6018;DHT22;3037;51.068;13.780;2024-02-26T12:53:26;12.30;1.00
6018;DHT22;3037;51.068;13.780;2024-02-26T12:55:54;12.40;1.00
6018;DHT22;3037;51.068;13.780;2024-02-26T12:58:21;12.20;1.00
6018;DHT22;3037;51.068;13.780;2024-02-26T13:00:51;12.10;1.00
6018;DHT22;3037;51.068;13.780;2024-02-26T13:03:16;12.20;1.00
6018;DHT22;3037;51.068;13.780;2024-02-26T13:05:42;12.00;1.00
6018;DHT22;3037;51.068;13.780;2024-02-26T13:08:08;11.90;1.00
6018;DHT22;3037;51.068;13.780;2024-02-26T13:10:33;12.00;1.00
6018;DHT22;3037;51.068;13.780;2024-02-26T13:13:02;12.00;1.00
6018;DHT22;3037;51.068;13.780;2024-02-26T13:15:27;12.30;1.00
6018;DHT22;3037;51.068;13.780;2024-02-26T13:17:53;12.10;1.00
6018;DHT22;3037;51.068;13.780;2024-02-26T13:20:26;12.10;1.00
6018;DHT22;3037;51.068;13.780;2024-02-26T13:23:06;12.10;1.00
6018;DHT22;3037;51.068;13.780;2024-02-26T13:25:32;12.10;1.00
6018;DHT22;3037;51.068;13.780;2024-02-26T13:28:06;12.00;1.00
6018;DHT22;3037;51.068;13.780;2024-02-26T13:30:33;12.10;1.00
6018;DHT22;3037;51.068;13.780;2024-02-26T13:33:07;12.20;1.00
6018;DHT22;3037;51.068;13.780;2024-02-26T13:35:34;12.00;1.00
6018;DHT22;3037;51.068;13.780;2024-02-26T13:38:00;11.80;1.00
6018;DHT22;3037;51.068;13.780;2024-02-26T13:40:26;11.90;1.00
6018;DHT22;3037;51.068;13.780;2024-02-26T13:42:51;12.10;1.00
6018;DHT22;3037;51.068;13.780;2024-02-26T13:45:18;12.00;1.00
6018;DHT22;3037;51.068;13.780;2024-02-26T13:47:43;11.90;1.00
6018;DHT22;3037;51.068;13.780;2024-02-26T13:50:09;11.70;1.00
6018;DHT22;3037;51.068;13.780;2024-02-26T13:52:35;11.70;1.00
6018;DHT22;3037;51.068;13.780;2024-02-26T13:55:00;11.90;1.00
6018;DHT22;3037;51.068;13.780;2024-02-26T13:57:27;11.70;1.00
6018;DHT22;3037;51.068;13.780;2024-02-26T13:59:54;11.80;1.00
6018;DHT22;3037;51.068;13.780;2024-02-26T14:02:19;11.80;1.00
6018;DHT22;3037;51.068;13.780;2024-02-26T14:04:45;11.60;1.00
6018;DHT22;3037;51.068;13.780;2024-02-26T14:07:11;11.70;1.00
6018;DHT22;3037;51.068;13.780;2024-02-26T14:09:37;11.80;1.00
6018;DHT22;3037;51.068;13.780;2024-02-26T14:12:03;11.80;1.00
6018;DHT22;3037;51.068;13.780;2024-02-26T14:14:29;11.60;1.00
6018;DHT22;3037;51.068;13.780;2024-02-26T14:16:58;11.90;1.00
6018;DHT22;3037;51.068;13.780;2024-02-26T14:19:23;11.90;1.00
6018;DHT22;3037;51.068;13.780;2024-02-26T14:21:49;11.70;1.00
6018;DHT22;3037;51.068;13.780;2024-02-26T14:24:14;11.80;1.00
6018;DHT22;3037;51.068;13.780;2024-02-26T14:26:41;11.90;1.00
6018;DHT22;3037;51.068;13.780;2024-02-26T14:29:06;11.80;1.00
6018;DHT22;3037;51.068;13.780;2024-02-26T14:31:32;11.80;1.00
6018;DHT22;3037;51.068;13.780;2024-02-26T14:33:58;11.70;1.00
6018;DHT22;3037;51.068;13.780;2024-02-26T14:36:24;11.80;1.00
6018;DHT22;3037;51.068;13.780;2024-02-26T14:38:50;11.90;1.00
6018;DHT22;3037;51.068;13.780;2024-02-26T14:41:16;12.20;1.00
6018;DHT22;3037;51.068;13.780;2024-02-26T14:43:41;12.10;1.00
6018;DHT22;3037;51.068;13.780;2024-02-26T14:46:07;12.20;1.00
6018;DHT22;3037;51.068;13.780;2024-02-26T14:48:33;12.10;1.00
6018;DHT22;3037;51.068;13.780;2024-02-26T14:50:59;12.10;1.00
6018;DHT22;3037;51.068;13.780;2024-02-26T14:53:25;12.10;1.00
6018;DHT22;3037;51.068;13.780;2024-02-26T14:55:51;12.00;1.00
6018;DHT22;3037;51.068;13.780;2024-02-26T14:58:17;12.00;1.00
6018;DHT22;3037;51.068;13.780;2024-02-26T15:00:43;12.10;1.00
6018;DHT22;3037;51.068;13.780;2024-02-26T15:03:08;12.00;1.00
6018;DHT22;3037;51.068;13.780;2024-02-26T15:05:34;12.00;1.00
6018;DHT22;3037;51.068;13.780;2024-02-26T15:08:00;12.00;1.00
6018;DHT22;3037;51.068;13.780;2024-02-26T15:10:25;11.90;1.00
6018;DHT22;3037;51.068;13.780;2024-02-26T15:12:51;11.90;1.00
6018;DHT22;3037;51.068;13.780;2024-02-26T15:15:20;11.80;1.00
6018;DHT22;3037;51.068;13.780;2024-02-26T15:17:47;11.90;1.00
6018;DHT22;3037;51.068;13.780;2024-02-26T15:20:14;11.90;1.00
6018;DHT22;3037;51.068;13.780;2024-02-26T15:22:40;11.80;1.00
6018;DHT22;3037;51.068;13.780;2024-02-26T15:25:05;11.90;1.00
6018;DHT22;3037;51.068;13.780;2024-02-26T15:27:31;11.70;1.00
6018;DHT22;3037;51.068;13.780;2024-02-26T15:29:57;11.60;1.00
6018;DHT22;3037;51.068;13.780;2024-02-26T15:32:26;11.50;1.00
6018;DHT22;3037;51.068;13.780;2024-02-26T15:34:53;11.50;1.00
6018;DHT22;3037;51.068;13.780;2024-02-26T15:37:18;11.50;1.00
6018;DHT22;3037;51.068;13.780;2024-02-26T15:39:44;11.50;1.00
6018;DHT22;3037;51.068;13.780;2024-02-26T15:42:10;11.30;1.00
6018;DHT22;3037;51.068;13.780;2024-02-26T15:44:37;11.40;1.00
6018;DHT22;3037;51.068;13.780;2024-02-26T15:47:03;11.20;1.00
6018;DHT22;3037;51.068;13.780;2024-02-26T15:49:30;11.30;1.00
6018;DHT22;3037;51.068;13.780;2024-02-26T15:51:56;11.30;1.00
6018;DHT22;3037;51.068;13.780;2024-02-26T15:54:21;11.40;1.00
6018;DHT22;3037;51.068;13.780;2024-02-26T15:56:47;11.30;1.00
6018;DHT22;3037;51.068;13.780;2024-02-26T15:59:13;11.30;1.00
6018;DHT22;3037;51.068;13.780;2024-02-26T16:01:39;11.20;1.00
6018;DHT22;3037;51.068;13.780;2024-02-26T16:04:04;11.20;1.00